createdAt,value
2018-08-25T00:00:37.735Z,79.96
2018-08-25T00:01:46.386Z,79.87
2018-08-25T00:02:55.030Z,80.25
2018-08-25T00:04:03.679Z,79.49
2018-08-25T00:05:12.583Z,79.2
2018-08-25T00:06:21.231Z,79
2018-08-25T00:07:29.876Z,79.29
2018-08-25T00:08:38.525Z,79.39
2018-08-25T00:09:47.163Z,79.39
2018-08-25T00:10:55.815Z,79.39
2018-08-25T00:12:04.461Z,79.29
2018-08-25T00:13:13.107Z,78.63
2018-08-25T00:14:22.009Z,78.86
2018-08-25T00:15:30.659Z,78.86
2018-08-25T00:16:39.306Z,78.81
2018-08-25T00:17:47.953Z,78.57
2018-08-25T00:18:56.602Z,78.47
2018-08-25T00:20:05.240Z,78.66
2018-08-25T00:21:13.883Z,78.76
2018-08-25T00:22:22.524Z,79.62
2018-08-25T00:23:31.178Z,79.05
2018-08-25T00:24:39.814Z,79.52
2018-08-25T00:25:48.460Z,79.33
2018-08-25T00:26:57.368Z,79.43
2018-08-25T00:28:06.017Z,79.33
2018-08-25T00:29:14.658Z,79.49
2018-08-25T00:30:23.304Z,79.33
2018-08-25T00:31:31.947Z,79.33
2018-08-25T00:32:40.597Z,79.49
2018-08-25T00:33:49.247Z,79.49
2018-08-25T00:34:57.892Z,80.16
2018-08-25T00:36:06.796Z,80.16
2018-08-25T00:37:15.438Z,79.77
2018-08-25T00:38:24.093Z,80.06
2018-08-25T00:39:32.736Z,80.82
2018-08-25T00:40:41.382Z,80.44
2018-08-25T00:41:50.284Z,80.44
2018-08-25T00:42:59.209Z,80.92
2018-08-25T00:44:07.864Z,80.44
2018-08-25T00:45:16.500Z,80.44
2018-08-25T00:46:25.145Z,81.21
2018-08-25T00:47:34.331Z,80.92
2018-08-25T00:48:43.570Z,81.02
2018-08-25T00:49:52.221Z,81.11
2018-08-25T00:51:01.127Z,81.49
2018-08-25T00:52:10.034Z,81.3
2018-08-25T00:53:18.677Z,81.3
2018-08-25T00:54:27.323Z,81.3
2018-08-25T00:55:35.972Z,81.59
2018-08-25T00:56:44.611Z,81.4
2018-08-25T00:57:53.258Z,81.78
2018-08-25T00:59:01.896Z,81.78
2018-08-25T01:00:10.549Z,82.26
2018-08-25T01:01:19.185Z,81.97
2018-08-25T01:02:27.835Z,82.03
2018-08-25T01:03:36.473Z,82.6
2018-08-25T01:04:45.130Z,82.51
2018-08-25T01:05:53.764Z,82.31
2018-08-25T01:07:02.411Z,82.41
2018-08-25T01:08:11.052Z,82.98
2018-08-25T01:09:19.707Z,82.98
2018-08-25T01:10:28.349Z,82.51
2018-08-25T01:11:36.998Z,82.98
2018-08-25T01:12:45.637Z,82.7
2018-08-25T01:13:54.279Z,83.08
2018-08-25T01:15:02.936Z,83.17
2018-08-25T01:16:11.575Z,83.08
2018-08-25T01:17:20.232Z,82.89
2018-08-25T01:18:28.871Z,83.17
2018-08-25T01:19:37.526Z,82.7
2018-08-25T01:20:46.164Z,83.27
2018-08-25T01:21:54.812Z,83.37
2018-08-25T01:23:03.455Z,82.98
2018-08-25T01:24:12.101Z,83.27
2018-08-25T01:25:20.749Z,82.79
2018-08-25T01:26:29.401Z,83.17
2018-08-25T01:27:38.038Z,83.17
2018-08-25T01:28:46.683Z,83.27
2018-08-25T01:29:55.333Z,82.98
2018-08-25T01:31:03.980Z,83.08
2018-08-25T01:32:12.631Z,83.17
2018-08-25T01:33:21.534Z,83.46
2018-08-25T01:34:30.188Z,83.46
2018-08-25T01:35:38.827Z,83.37
2018-08-25T01:36:47.480Z,83.46
2018-08-25T01:37:56.116Z,84.23
2018-08-25T01:39:04.764Z,84.03
2018-08-25T01:40:13.671Z,83.84
2018-08-25T01:41:22.588Z,84.23
2018-08-25T01:42:31.485Z,84.03
2018-08-25T01:43:40.132Z,84.23
2018-08-25T01:44:48.776Z,84.13
2018-08-25T01:45:57.429Z,84.03
2018-08-25T01:47:06.072Z,84.89
2018-08-25T01:48:14.973Z,84.89
2018-08-25T01:49:23.618Z,84.7
2018-08-25T01:50:32.262Z,84.52
2018-08-25T01:51:40.915Z,84.61
2018-08-25T01:52:49.557Z,84.99
2018-08-25T01:53:58.203Z,84.8
2018-08-25T01:55:07.365Z,84.7
2018-08-25T01:56:16.012Z,84.7
2018-08-25T01:57:24.659Z,84.99
2018-08-25T01:58:33.559Z,84.61
2018-08-25T01:59:42.213Z,84.99
2018-08-25T02:00:50.844Z,85.09
2018-08-25T02:02:00.020Z,85.18
2018-08-25T02:03:08.661Z,85.09
2018-08-25T02:04:17.314Z,85.09
2018-08-25T02:05:26.212Z,84.99
2018-08-25T02:06:34.851Z,85.18
2018-08-25T02:07:43.760Z,84.8
2018-08-25T02:08:52.404Z,84.7
2018-08-25T02:10:01.054Z,85.28
2018-08-25T02:11:09.693Z,85.28
2018-08-25T02:12:18.342Z,85.28
2018-08-25T02:13:26.979Z,85.28
2018-08-25T02:14:35.900Z,85.28
2018-08-25T02:15:44.544Z,85.85
2018-08-25T02:16:53.456Z,85.28
2018-08-25T02:18:02.091Z,85.18
2018-08-25T02:19:10.744Z,84.99
2018-08-25T02:20:19.385Z,84.8
2018-08-25T02:21:28.034Z,84.89
2018-08-25T02:22:36.669Z,85.09
2018-08-25T02:23:45.314Z,85.18
2018-08-25T02:24:54.224Z,84.61
2018-08-25T02:26:02.870Z,84.52
2018-08-25T02:27:11.522Z,84.7
2018-08-25T02:28:20.250Z,84.8
2018-08-25T02:29:29.230Z,84.61
2018-08-25T02:30:37.870Z,84.32
2018-08-25T02:31:47.041Z,84.52
2018-08-25T02:32:55.677Z,84.42
2018-08-25T02:34:04.323Z,84.42
2018-08-25T02:35:12.962Z,84.23
2018-08-25T02:36:21.880Z,84.8
2018-08-25T02:37:30.517Z,84.13
2018-08-25T02:38:39.279Z,84.23
2018-08-25T02:39:47.811Z,84.42
2018-08-25T02:40:56.466Z,84.03
2018-08-25T02:42:05.103Z,83.94
2018-08-25T02:43:13.743Z,84.03
2018-08-25T02:44:22.389Z,84.08
2018-08-25T02:45:31.031Z,83.84
2018-08-25T02:46:39.682Z,83.46
2018-08-25T02:47:48.324Z,83.5
2018-08-25T02:48:56.972Z,84.03
2018-08-25T02:50:05.608Z,83.65
2018-08-25T02:51:14.258Z,84.03
2018-08-25T02:52:22.906Z,84.13
2018-08-25T02:53:31.547Z,84.03
2018-08-25T02:54:40.184Z,83.94
2018-08-25T02:55:48.836Z,84.13
2018-08-25T02:56:57.479Z,83.84
2018-08-25T02:58:06.393Z,84.03
2018-08-25T02:59:15.297Z,83.65
2018-08-25T03:00:23.947Z,84.13
2018-08-25T03:01:32.596Z,84.13
2018-08-25T03:02:41.243Z,84.42
2018-08-25T03:03:49.892Z,83.84
2018-08-25T03:04:58.792Z,84.03
2018-08-25T03:06:07.719Z,83.75
2018-08-25T03:07:16.624Z,83.37
2018-08-25T03:08:25.273Z,83.56
2018-08-25T03:09:33.914Z,83.27
2018-08-25T03:10:42.830Z,84.46
2018-08-25T03:11:51.473Z,84.27
2018-08-25T03:13:00.127Z,84.84
2018-08-25T03:14:09.038Z,85.03
2018-08-25T03:15:17.685Z,85.66
2018-08-25T03:16:26.326Z,86.52
2018-08-25T03:17:35.235Z,87.09
2018-08-25T03:18:43.879Z,87.62
2018-08-25T03:19:52.524Z,90.44
2018-08-25T03:21:01.168Z,91.78
2018-08-25T03:22:09.808Z,92.45
2018-08-25T03:23:18.455Z,93.6
2018-08-25T03:24:27.099Z,94.07
2018-08-25T03:25:35.746Z,94.93
2018-08-25T03:26:44.387Z,95.56
2018-08-25T03:27:53.037Z,95.56
2018-08-25T03:29:01.682Z,96.03
2018-08-25T03:30:10.592Z,97.08
2018-08-25T03:31:19.760Z,97.66
2018-08-25T03:32:28.413Z,98.13
2018-08-25T03:33:37.325Z,98.9
2018-08-25T03:34:45.974Z,99.99
2018-08-25T03:35:54.612Z,99.99
2018-08-25T03:37:03.522Z,99.99
2018-08-25T03:38:12.165Z,99.99
2018-08-25T03:39:20.810Z,99.99
2018-08-25T03:40:29.456Z,99.99
2018-08-25T03:41:38.097Z,99.99
2018-08-25T03:42:46.740Z,99.99
2018-08-25T03:43:55.648Z,99.99
2018-08-25T03:45:04.296Z,99.99
2018-08-25T03:46:12.938Z,99.99
2018-08-25T03:47:21.580Z,99.99
2018-08-25T03:48:30.490Z,99.99
2018-08-25T03:49:39.136Z,99.99
2018-08-25T03:50:47.777Z,99.99
2018-08-25T03:51:56.680Z,99.99
2018-08-25T03:53:05.323Z,99.99
2018-08-25T03:54:13.966Z,99.99
2018-08-25T03:55:22.654Z,99.99
2018-08-25T03:56:31.248Z,99.99
2018-08-25T03:57:39.887Z,99.99
2018-08-25T03:58:48.527Z,99.99
2018-08-25T03:59:57.174Z,99.99
2018-08-25T04:01:05.817Z,99.99
2018-08-25T04:02:14.460Z,99.99
2018-08-25T04:03:23.364Z,99.99
2018-08-25T04:04:32.011Z,99.99
2018-08-25T04:05:40.657Z,99.99
2018-08-25T04:06:49.299Z,99.99
2018-08-25T04:07:58.465Z,99.99
2018-08-25T04:09:07.120Z,99.99
2018-08-25T04:10:15.762Z,99.99
2018-08-25T04:11:24.407Z,99.99
2018-08-25T04:12:33.323Z,99.99
2018-08-25T04:13:41.969Z,99.99
2018-08-25T04:14:50.661Z,99.99
2018-08-25T04:15:59.255Z,99.99
2018-08-25T04:17:08.168Z,99.99
2018-08-25T04:18:16.808Z,99.99
2018-08-25T04:19:25.449Z,99.99
2018-08-25T04:20:34.092Z,99.99
2018-08-25T04:21:42.740Z,99.99
2018-08-25T04:22:51.377Z,99.99
2018-08-25T04:24:00.025Z,99.99
2018-08-25T04:25:08.662Z,99.99
2018-08-25T04:26:17.309Z,99.99
2018-08-25T04:27:25.946Z,99.99
2018-08-25T04:28:34.591Z,99.99
2018-08-25T04:29:43.232Z,99.99
2018-08-25T04:30:51.878Z,99.99
2018-08-25T04:32:00.518Z,99.99
2018-08-25T04:33:09.163Z,99.99
2018-08-25T04:34:17.817Z,99.99
2018-08-25T04:35:26.997Z,99.99
2018-08-25T04:36:35.912Z,99.99
2018-08-25T04:37:44.555Z,99.99
2018-08-25T04:38:53.200Z,99.99
2018-08-25T04:40:02.100Z,99.99
2018-08-25T04:41:10.798Z,99.99
2018-08-25T04:42:19.396Z,99.99
2018-08-25T04:43:28.042Z,99.99
2018-08-25T04:44:36.686Z,99.99
2018-08-25T04:45:45.337Z,99.99
2018-08-25T04:46:53.976Z,99.99
2018-08-25T04:48:02.622Z,99.99
2018-08-25T04:49:11.269Z,99.99
2018-08-25T04:50:19.914Z,99.99
2018-08-25T04:51:28.557Z,99.99
2018-08-25T04:52:37.470Z,99.99
2018-08-25T04:53:46.109Z,99.99
2018-08-25T04:54:54.748Z,99.99
2018-08-25T04:56:03.395Z,99.99
2018-08-25T04:57:12.031Z,99.99
2018-08-25T04:58:20.684Z,99.99
2018-08-25T04:59:29.322Z,99.99
2018-08-25T05:00:38.235Z,99.99
2018-08-25T05:01:46.938Z,99.99
2018-08-25T05:02:55.858Z,99.99
2018-08-25T05:04:04.496Z,99.99
2018-08-25T05:05:13.141Z,99.99
2018-08-25T05:06:21.783Z,99.99
2018-08-25T05:07:30.498Z,99.99
2018-08-25T05:08:39.078Z,99.99
2018-08-25T05:09:47.721Z,99.99
2018-08-25T05:10:56.357Z,99.99
2018-08-25T05:12:04.999Z,99.99
2018-08-25T05:13:13.654Z,99.99
2018-08-25T05:14:22.295Z,99.99
2018-08-25T05:15:30.941Z,99.99
2018-08-25T05:16:39.577Z,99.99
2018-08-25T05:17:48.227Z,99.99
2018-08-25T05:18:56.862Z,99.99
2018-08-25T05:20:05.509Z,99.99
2018-08-25T05:21:14.141Z,99.99
2018-08-25T05:22:22.794Z,99.99
2018-08-25T05:23:31.435Z,99.99
2018-08-25T05:24:40.084Z,99.99
2018-08-25T05:25:48.719Z,99.99
2018-08-25T05:26:57.365Z,99.99
2018-08-25T05:28:06.012Z,99.99
2018-08-25T05:29:14.658Z,99.99
2018-08-25T05:30:23.307Z,99.99
2018-08-25T05:31:31.947Z,99.99
2018-08-25T05:32:40.598Z,99.99
2018-08-25T05:33:49.240Z,99.99
2018-08-25T05:34:58.160Z,99.99
2018-08-25T05:36:06.793Z,99.99
2018-08-25T05:37:15.700Z,99.99
2018-08-25T05:38:24.603Z,99.99
2018-08-25T05:39:33.514Z,99.99
2018-08-25T05:40:42.149Z,99.99
2018-08-25T05:41:50.799Z,99.99
2018-08-25T05:42:59.444Z,99.99
2018-08-25T05:44:08.101Z,99.99
2018-08-25T05:45:17.154Z,99.99
2018-08-25T05:46:26.056Z,99.99
2018-08-25T05:47:34.958Z,99.99
2018-08-25T05:48:43.599Z,99.99
2018-08-25T05:49:52.513Z,99.99
2018-08-25T05:51:01.156Z,99.99
2018-08-25T05:52:10.064Z,99.99
2018-08-25T05:53:18.718Z,99.99
2018-08-25T05:54:27.356Z,99.99
2018-08-25T05:55:36.001Z,99.99
2018-08-25T05:56:44.639Z,99.99
2018-08-25T05:57:53.292Z,99.99
2018-08-25T05:59:01.929Z,99.99
2018-08-25T06:00:11.100Z,99.99
2018-08-25T06:01:19.742Z,99.99
2018-08-25T06:02:28.397Z,99.99
2018-08-25T06:03:37.039Z,99.99
2018-08-25T06:04:45.940Z,99.99
2018-08-25T06:05:54.581Z,99.99
2018-08-25T06:07:03.221Z,99.99
2018-08-25T06:08:11.874Z,99.99
2018-08-25T06:09:20.509Z,99.99
2018-08-25T06:10:29.158Z,99.99
2018-08-25T06:11:38.057Z,99.99
2018-08-25T06:12:46.708Z,99.99
2018-08-25T06:13:55.345Z,99.99
2018-08-25T06:15:03.994Z,99.99
2018-08-25T06:16:12.629Z,99.99
2018-08-25T06:17:21.280Z,99.99
2018-08-25T06:18:29.930Z,99.99
2018-08-25T06:19:39.097Z,99.99
2018-08-25T06:20:48.006Z,99.99
2018-08-25T06:21:56.911Z,99.99
2018-08-25T06:23:05.559Z,99.99
2018-08-25T06:24:14.206Z,99.99
2018-08-25T06:25:22.854Z,99.99
2018-08-25T06:26:31.488Z,99.99
2018-08-25T06:27:40.138Z,99.99
2018-08-25T06:28:49.043Z,99.99
2018-08-25T06:29:57.727Z,99.99
2018-08-25T06:31:06.334Z,99.99
2018-08-25T06:32:14.981Z,99.99
2018-08-25T06:33:23.620Z,99.99
2018-08-25T06:34:32.273Z,99.99
2018-08-25T06:35:40.910Z,99.99
2018-08-25T06:36:49.570Z,99.99
2018-08-25T06:37:58.220Z,99.99
2018-08-25T06:39:07.177Z,99.99
2018-08-25T06:40:16.086Z,99.99
2018-08-25T06:41:24.726Z,99.99
2018-08-25T06:42:33.420Z,99.99
2018-08-25T06:43:42.389Z,99.99
2018-08-25T06:44:51.001Z,99.99
2018-08-25T06:45:59.641Z,99.99
2018-08-25T06:47:08.299Z,99.99
2018-08-25T06:48:16.938Z,99.99
2018-08-25T06:49:25.583Z,99.99
2018-08-25T06:50:34.225Z,99.99
2018-08-25T06:51:43.135Z,99.99
2018-08-25T06:52:51.773Z,99.99
2018-08-25T06:54:00.421Z,99.99
2018-08-25T06:55:09.060Z,99.99
2018-08-25T06:56:17.974Z,99.99
2018-08-25T06:57:26.612Z,99.99
2018-08-25T06:58:35.263Z,99.99
2018-08-25T06:59:43.907Z,99.99
2018-08-25T07:00:53.081Z,99.99
2018-08-25T07:02:01.730Z,99.99
2018-08-25T07:03:10.368Z,99.99
2018-08-25T07:04:19.275Z,99.99
2018-08-25T07:05:27.921Z,99.99
2018-08-25T07:06:36.569Z,99.99
2018-08-25T07:07:45.282Z,99.99
2018-08-25T07:08:53.851Z,99.99
2018-08-25T07:10:02.502Z,99.99
2018-08-25T07:11:11.406Z,99.99
2018-08-25T07:12:20.306Z,99.99
2018-08-25T07:13:28.953Z,99.99
2018-08-25T07:14:37.859Z,99.99
2018-08-25T07:15:46.508Z,99.99
2018-08-25T07:16:55.152Z,99.99
2018-08-25T07:18:03.798Z,99.99
2018-08-25T07:19:12.437Z,99.99
2018-08-25T07:20:21.076Z,99.99
2018-08-25T07:21:29.724Z,99.99
2018-08-25T07:22:38.372Z,99.99
2018-08-25T07:23:47.020Z,99.99
2018-08-25T07:24:55.659Z,99.99
2018-08-25T07:26:04.360Z,99.99
2018-08-25T07:27:12.956Z,99.99
2018-08-25T07:28:21.599Z,99.99
2018-08-25T07:29:30.238Z,99.99
2018-08-25T07:30:38.887Z,99.99
2018-08-25T07:31:47.529Z,99.99
2018-08-25T07:32:56.176Z,99.28
2018-08-25T07:34:04.815Z,99.28
2018-08-25T07:35:13.462Z,99.99
2018-08-25T07:36:22.106Z,99.99
2018-08-25T07:37:30.752Z,99.66
2018-08-25T07:38:39.402Z,99.76
2018-08-25T07:39:48.043Z,99.99
2018-08-25T07:40:56.684Z,99.38
2018-08-25T07:42:05.328Z,98.13
2018-08-25T07:43:14.241Z,97.56
2018-08-25T07:44:23.144Z,99.76
2018-08-25T07:45:31.796Z,99.09
2018-08-25T07:46:40.440Z,98.42
2018-08-25T07:47:49.090Z,98.61
2018-08-25T07:48:57.996Z,99.99
2018-08-25T07:50:06.643Z,98.38
2018-08-25T07:51:15.551Z,97.04
2018-08-25T07:52:24.205Z,98.18
2018-08-25T07:53:32.886Z,94.65
2018-08-25T07:54:41.499Z,95.22
2018-08-25T07:55:50.665Z,94.79
2018-08-25T07:56:59.311Z,95.27
2018-08-25T07:58:08.226Z,94.7
2018-08-25T07:59:17.177Z,94.98
2018-08-25T08:00:25.778Z,94.74
2018-08-25T08:01:34.414Z,94.98
2018-08-25T08:02:43.065Z,94.36
2018-08-25T08:03:51.706Z,94.93
2018-08-25T08:05:00.354Z,95.7
2018-08-25T08:06:08.992Z,95.89
2018-08-25T08:07:17.649Z,96.13
2018-08-25T08:08:26.814Z,97.85
2018-08-25T08:09:35.738Z,99.57
2018-08-25T08:10:44.374Z,99.99
2018-08-25T08:11:53.133Z,99.99
2018-08-25T08:13:02.561Z,99.99
2018-08-25T08:14:11.472Z,99.99
2018-08-25T08:15:20.115Z,99.99
2018-08-25T08:16:28.749Z,99.99
2018-08-25T08:17:37.397Z,99.99
2018-08-25T08:18:46.035Z,99.99
2018-08-25T08:19:54.948Z,99.99
2018-08-25T08:21:03.583Z,99.99
2018-08-25T08:22:12.230Z,99.99
2018-08-25T08:23:20.872Z,99.99
2018-08-25T08:24:29.524Z,99.99
2018-08-25T08:25:38.418Z,99.99
2018-08-25T08:26:47.065Z,99.99
2018-08-25T08:27:55.968Z,99.99
2018-08-25T08:29:04.619Z,99.99
2018-08-25T08:30:13.524Z,99.99
2018-08-25T08:31:22.169Z,99.99
2018-08-25T08:32:30.809Z,99.99
2018-08-25T08:33:39.450Z,99.99
2018-08-25T08:34:48.104Z,99.99
2018-08-25T08:35:56.741Z,99.99
2018-08-25T08:37:05.391Z,99.99
2018-08-25T08:38:14.023Z,99.99
2018-08-25T08:39:22.761Z,99.99
2018-08-25T08:40:31.319Z,99.99
2018-08-25T08:41:39.965Z,99.99
2018-08-25T08:42:48.604Z,99.99
2018-08-25T08:43:57.259Z,99.99
2018-08-25T08:45:05.900Z,99.86
2018-08-25T08:46:14.542Z,99.99
2018-08-25T08:47:23.237Z,99.99
2018-08-25T08:48:32.158Z,98.43
2018-08-25T08:49:46.748Z,98.52
2018-08-25T08:50:54.202Z,99.67
2018-08-25T08:52:02.848Z,99.99
2018-08-25T08:53:12.025Z,99.99
2018-08-25T08:54:20.669Z,99.99
2018-08-25T08:55:29.585Z,99.99
2018-08-25T08:56:38.229Z,99.99
2018-08-25T08:57:46.870Z,99.99
2018-08-25T08:58:55.518Z,99.99
2018-08-25T09:00:04.422Z,99.99
2018-08-25T09:01:13.349Z,99.99
2018-08-25T09:02:21.988Z,99.99
2018-08-25T09:03:30.733Z,99.99
2018-08-25T09:04:39.541Z,99.99
2018-08-25T09:05:48.190Z,99.99
2018-08-25T09:06:57.097Z,99.99
2018-08-25T09:08:05.748Z,99.99
2018-08-25T09:09:14.390Z,99.99
2018-08-25T09:10:23.031Z,99.99
2018-08-25T09:11:31.769Z,99.99
2018-08-25T09:12:40.333Z,99.99
2018-08-25T09:13:49.237Z,99.99
2018-08-25T09:14:57.876Z,99.99
2018-08-25T09:16:06.528Z,99.99
2018-08-25T09:17:15.181Z,99.99
2018-08-25T09:18:24.089Z,99.99
2018-08-25T09:19:32.761Z,99.99
2018-08-25T09:20:41.638Z,99.99
2018-08-25T09:21:50.280Z,99.99
2018-08-25T09:22:58.926Z,99.99
2018-08-25T09:24:07.564Z,99.99
2018-08-25T09:25:16.210Z,99.99
2018-08-25T09:26:24.851Z,99.99
2018-08-25T09:27:34.101Z,99.99
2018-08-25T09:28:42.665Z,99.99
2018-08-25T09:29:51.302Z,99.99
2018-08-25T09:30:59.945Z,99.99
2018-08-25T09:32:08.590Z,99.99
2018-08-25T09:33:17.239Z,99.99
2018-08-25T09:34:25.881Z,99.99
2018-08-25T09:35:34.523Z,99.9
2018-08-25T09:36:43.586Z,99.99
2018-08-25T09:37:52.128Z,99.76
2018-08-25T09:39:00.768Z,99.99
2018-08-25T09:40:09.415Z,99.99
2018-08-25T09:41:18.060Z,99.99
2018-08-25T09:42:26.707Z,99.67
2018-08-25T09:43:35.614Z,99.99
2018-08-25T09:44:44.270Z,99.99
2018-08-25T09:45:53.176Z,98.61
2018-08-25T09:47:01.847Z,99.43
2018-08-25T09:48:10.463Z,99.99
2018-08-25T09:49:19.375Z,98.38
2018-08-25T09:50:28.019Z,99.24
2018-08-25T09:51:36.668Z,99.71
2018-08-25T09:52:45.309Z,99.71
2018-08-25T09:53:53.955Z,99.99
2018-08-25T09:55:02.595Z,97.61
2018-08-25T09:56:11.247Z,97.33
2018-08-25T09:57:19.894Z,99.81
2018-08-25T09:58:28.547Z,99.99
2018-08-25T09:59:37.180Z,99.24
2018-08-25T10:00:45.828Z,98.57
2018-08-25T10:01:54.472Z,98.24
2018-08-25T10:03:03.119Z,99.29
2018-08-25T10:04:11.760Z,97.95
2018-08-25T10:05:20.414Z,98.9
2018-08-25T10:06:29.484Z,98.33
2018-08-25T10:07:38.129Z,95.75
2018-08-25T10:08:46.773Z,95.56
2018-08-25T10:09:55.418Z,96.13
2018-08-25T10:11:04.334Z,96.32
2018-08-25T10:12:13.247Z,95.56
2018-08-25T10:13:21.892Z,94.6
2018-08-25T10:14:30.800Z,93.84
2018-08-25T10:15:39.452Z,95.03
2018-08-25T10:16:48.195Z,94.17
2018-08-25T10:17:56.744Z,93.21
2018-08-25T10:19:05.649Z,94.26
2018-08-25T10:20:14.297Z,91.82
2018-08-25T10:21:22.945Z,93.5
2018-08-25T10:22:31.593Z,94.36
2018-08-25T10:23:40.265Z,91.72
2018-08-25T10:24:49.149Z,92.78
2018-08-25T10:25:58.325Z,91.72
2018-08-25T10:27:06.969Z,90.09
2018-08-25T10:28:15.886Z,90.48
2018-08-25T10:29:24.530Z,90.34
2018-08-25T10:30:33.173Z,90.72
2018-08-25T10:31:41.817Z,91.68
2018-08-25T10:32:50.470Z,91.44
2018-08-25T10:33:59.111Z,92.11
2018-08-25T10:35:07.757Z,91.82
2018-08-25T10:36:16.400Z,89.52
2018-08-25T10:37:25.051Z,90.09
2018-08-25T10:38:33.696Z,87.8
2018-08-25T10:39:42.608Z,86.98
2018-08-25T10:40:51.252Z,86.98
2018-08-25T10:41:59.959Z,87.65
2018-08-25T10:43:08.553Z,86.88
2018-08-25T10:44:17.488Z,88.27
2018-08-25T10:45:26.403Z,84.82
2018-08-25T10:46:35.039Z,83.38
2018-08-25T10:47:43.960Z,83.48
2018-08-25T10:48:52.600Z,84.82
2018-08-25T10:50:01.255Z,84.25
2018-08-25T10:51:10.157Z,83.58
2018-08-25T10:52:19.076Z,85.3
2018-08-25T10:53:27.722Z,85.68
2018-08-25T10:54:36.371Z,82.42
2018-08-25T10:55:45.008Z,82.81
2018-08-25T10:56:53.664Z,85.11
2018-08-25T10:58:02.317Z,81.89
2018-08-25T10:59:10.965Z,84.34
2018-08-25T11:00:19.695Z,83.19
2018-08-25T11:01:28.257Z,80.89
2018-08-25T11:02:37.173Z,81.85
2018-08-25T11:03:45.813Z,83.19
2018-08-25T11:04:54.471Z,84.34
2018-08-25T11:06:03.108Z,80.89
2018-08-25T11:07:12.023Z,81.56
2018-08-25T11:08:20.666Z,82.42
2018-08-25T11:09:29.320Z,81.95
2018-08-25T11:10:37.959Z,82.57
2018-08-25T11:11:46.608Z,82.38
2018-08-25T11:12:55.518Z,81.43
2018-08-25T11:14:04.173Z,82.67
2018-08-25T11:15:13.081Z,83.92
2018-08-25T11:16:21.755Z,82.76
2018-08-25T11:17:30.366Z,82.9
2018-08-25T11:18:39.011Z,81.56
2018-08-25T11:19:47.934Z,82.23
2018-08-25T11:20:56.576Z,83.95
2018-08-25T11:22:05.489Z,84.91
2018-08-25T11:23:14.124Z,84.44
2018-08-25T11:24:23.049Z,85.82
2018-08-25T11:25:31.690Z,81.79
2018-08-25T11:26:40.341Z,77.38
2018-08-25T11:27:48.976Z,78.05
2018-08-25T11:28:57.635Z,78.34
2018-08-25T11:30:06.280Z,79.11
2018-08-25T11:31:14.930Z,78.72
2018-08-25T11:32:23.570Z,77
2018-08-25T11:33:32.214Z,77.38
2018-08-25T11:34:40.864Z,79.49
2018-08-25T11:35:49.513Z,80.45
2018-08-25T11:36:58.429Z,79.68
2018-08-25T11:38:07.384Z,78.05
2018-08-25T11:39:15.981Z,78.05
2018-08-25T11:40:24.624Z,78.34
2018-08-25T11:41:33.546Z,76.23
2018-08-25T11:42:42.194Z,75.56
2018-08-25T11:43:51.132Z,75.6
2018-08-25T11:44:59.745Z,76.84
2018-08-25T11:46:08.391Z,76.56
2018-08-25T11:47:17.037Z,75.45
2018-08-25T11:48:25.682Z,73.33
2018-08-25T11:49:34.333Z,75.15
2018-08-25T11:50:43.242Z,73.91
2018-08-25T11:51:51.897Z,72.12
2018-08-25T11:53:01.073Z,71.55
2018-08-25T11:54:09.842Z,72.79
2018-08-25T11:55:18.371Z,71.93
2018-08-25T11:56:27.282Z,75
2018-08-25T11:57:35.929Z,75
2018-08-25T11:58:44.575Z,75.48
2018-08-25T11:59:53.225Z,71.45
2018-08-25T12:01:01.867Z,71.35
2018-08-25T12:02:10.557Z,72.5
2018-08-25T12:03:19.568Z,72.12
2018-08-25T12:04:28.490Z,71.55
2018-08-25T12:05:37.129Z,70.29
2018-08-25T12:06:45.779Z,73.37
2018-08-25T12:07:54.423Z,73.52
2018-08-25T12:09:03.073Z,72.02
2018-08-25T12:10:11.719Z,72.47
2018-08-25T12:11:20.366Z,72.5
2018-08-25T12:12:29.011Z,71.55
2018-08-25T12:13:37.661Z,71.25
2018-08-25T12:14:46.317Z,70.33
2018-08-25T12:15:54.960Z,70.81
2018-08-25T12:17:03.863Z,71.77
2018-08-25T12:18:12.773Z,72.83
2018-08-25T12:19:21.423Z,72.16
2018-08-25T12:20:30.600Z,70.43
2018-08-25T12:21:39.250Z,68.98
2018-08-25T12:22:47.892Z,69.85
2018-08-25T12:23:56.547Z,72.16
2018-08-25T12:25:05.188Z,71.83
2018-08-25T12:26:13.838Z,71.93
2018-08-25T12:27:22.480Z,74.13
2018-08-25T12:28:31.395Z,74.71
2018-08-25T12:29:40.306Z,72.02
2018-08-25T12:30:48.968Z,72.22
2018-08-25T12:31:57.610Z,72.02
2018-08-25T12:33:06.254Z,70.87
2018-08-25T12:34:14.901Z,72.69
2018-08-25T12:35:23.551Z,71.93
2018-08-25T12:36:32.206Z,72.12
2018-08-25T12:37:41.120Z,73.37
2018-08-25T12:38:50.030Z,73.31
2018-08-25T12:39:58.679Z,73.88
2018-08-25T12:41:07.333Z,70.72
2018-08-25T12:42:15.976Z,70.72
2018-08-25T12:43:24.654Z,69.95
2018-08-25T12:44:33.273Z,69.95
2018-08-25T12:45:41.931Z,69.27
2018-08-25T12:46:50.575Z,69.85
2018-08-25T12:47:59.219Z,68.41
2018-08-25T12:49:08.139Z,69.95
2018-08-25T12:50:16.786Z,69.27
2018-08-25T12:51:25.441Z,71.39
2018-08-25T12:52:34.084Z,71.67
2018-08-25T12:53:42.737Z,71.96
2018-08-25T12:54:51.375Z,71.48
2018-08-25T12:56:00.036Z,70.9
2018-08-25T12:57:08.947Z,71.58
2018-08-25T12:58:17.603Z,70.52
2018-08-25T12:59:26.239Z,71.77
2018-08-25T13:00:34.900Z,70.52
2018-08-25T13:01:43.624Z,70.9
2018-08-25T13:02:52.464Z,70.23
2018-08-25T13:04:01.103Z,69.98
2018-08-25T13:05:10.012Z,70.07
2018-08-25T13:06:18.667Z,70.27
2018-08-25T13:07:27.378Z,70.27
2018-08-25T13:08:36.256Z,70.9
2018-08-25T13:09:44.896Z,69.85
2018-08-25T13:10:53.547Z,70.78
2018-08-25T13:12:02.193Z,71.83
2018-08-25T13:13:10.902Z,72.41
2018-08-25T13:14:19.489Z,73.62
2018-08-25T13:15:28.146Z,77.08
2018-08-25T13:16:36.784Z,80.2
2018-08-25T13:17:45.445Z,84.58
2018-08-25T13:18:54.553Z,88.7
2018-08-25T13:20:03.092Z,89.86
2018-08-25T13:21:11.736Z,93.02
2018-08-25T13:22:20.390Z,95.94
2018-08-25T13:23:29.529Z,99.14
2018-08-25T13:24:38.092Z,99.99
2018-08-25T13:25:46.734Z,99.99
2018-08-25T13:26:55.377Z,99.99
2018-08-25T13:28:04.293Z,99.99
2018-08-25T13:29:12.932Z,99.99
2018-08-25T13:30:21.583Z,99.99
2018-08-25T13:31:30.490Z,99.99
2018-08-25T13:32:39.140Z,99.99
2018-08-25T13:33:47.779Z,99.99
2018-08-25T13:34:56.689Z,99.99
2018-08-25T13:36:05.326Z,99.99
2018-08-25T13:37:13.975Z,99.99
2018-08-25T13:38:22.623Z,99.99
2018-08-25T13:39:31.265Z,99.99
2018-08-25T13:40:39.915Z,99.99
2018-08-25T13:41:48.835Z,99.99
2018-08-25T13:42:57.736Z,99.99
2018-08-25T13:44:06.443Z,99.99
2018-08-25T13:45:15.385Z,99.99
2018-08-25T13:46:24.025Z,99.99
2018-08-25T13:47:32.663Z,99.99
2018-08-25T13:48:41.311Z,99.99
2018-08-25T13:49:50.212Z,99.99
2018-08-25T13:50:59.235Z,99.99
2018-08-25T13:52:07.841Z,99.99
2018-08-25T13:53:16.758Z,99.99
2018-08-25T13:54:25.429Z,99.99
2018-08-25T13:55:34.045Z,99.99
2018-08-25T13:56:42.950Z,99.99
2018-08-25T13:57:51.597Z,99.99
2018-08-25T13:59:00.496Z,99.99
2018-08-25T14:00:09.140Z,99.99
2018-08-25T14:01:17.792Z,99.99
2018-08-25T14:02:26.435Z,99.99
2018-08-25T14:03:35.348Z,99.99
2018-08-25T14:04:43.983Z,99.99
2018-08-25T14:05:52.635Z,99.99
2018-08-25T14:07:01.273Z,99.99
2018-08-25T14:08:09.945Z,99.99
2018-08-25T14:09:18.923Z,99.99
2018-08-25T14:10:27.836Z,99.99
2018-08-25T14:11:36.476Z,99.99
2018-08-25T14:12:45.398Z,99.99
2018-08-25T14:13:54.032Z,99.99
2018-08-25T14:15:02.677Z,99.99
2018-08-25T14:16:11.502Z,99.99
2018-08-25T14:17:20.493Z,99.99
2018-08-25T14:18:29.137Z,99.99
2018-08-25T14:19:37.780Z,99.99
2018-08-25T14:20:46.424Z,99.99
2018-08-25T14:21:55.066Z,99.99
2018-08-25T14:23:03.716Z,99.99
2018-08-25T14:24:12.613Z,99.99
2018-08-25T14:25:21.262Z,99.99
2018-08-25T14:26:30.163Z,99.99
2018-08-25T14:27:38.816Z,99.99
2018-08-25T14:28:47.514Z,99.99
2018-08-25T14:29:56.107Z,99.99
2018-08-25T14:31:04.744Z,99.99
2018-08-25T14:32:13.400Z,99.99
2018-08-25T14:33:22.042Z,99.99
2018-08-25T14:34:30.695Z,99.99
2018-08-25T14:35:39.326Z,99.99
2018-08-25T14:36:47.982Z,99.99
2018-08-25T14:37:56.898Z,99.99
2018-08-25T14:39:05.544Z,99.99
2018-08-25T14:40:14.193Z,99.99
2018-08-25T14:41:23.097Z,99.99
2018-08-25T14:42:32.005Z,99.99
2018-08-25T14:43:40.650Z,99.99
2018-08-25T14:44:49.296Z,99.99
2018-08-25T14:45:57.937Z,99.99
2018-08-25T14:47:06.611Z,99.99